createdAt,value
2023-02-12T00:00:23.197Z,6.35
2023-02-12T00:02:50.500Z,6.97
2023-02-12T00:05:17.722Z,6.05
2023-02-12T00:07:44.972Z,5.93
2023-02-12T00:10:13.152Z,5.53
2023-02-12T00:12:40.440Z,6.18
2023-02-12T00:15:07.690Z,6.63
2023-02-12T00:17:34.988Z,7.03
2023-02-12T00:20:02.227Z,6.10
2023-02-12T00:22:29.716Z,6.03
2023-02-12T00:24:57.192Z,6.07
2023-02-12T00:27:24.847Z,5.88
2023-02-12T00:29:52.116Z,6.63
2023-02-12T00:32:19.751Z,6.80
2023-02-12T00:34:49.663Z,6.53
2023-02-12T00:37:17.028Z,6.05
2023-02-12T00:39:44.377Z,6.70
2023-02-12T00:42:11.675Z,6.47
2023-02-12T00:44:39.938Z,6.40
2023-02-12T00:47:07.197Z,6.15
2023-02-12T00:49:37.121Z,6.47
2023-02-12T00:52:05.179Z,5.78
2023-02-12T00:54:32.461Z,6.10
2023-02-12T00:56:59.897Z,6.07
2023-02-12T00:59:29.836Z,6.38
2023-02-12T01:01:57.529Z,6.07
2023-02-12T01:04:24.829Z,6.03
2023-02-12T01:06:52.097Z,5.43
2023-02-12T01:09:19.275Z,6.63
2023-02-12T01:11:48.184Z,5.88
2023-02-12T01:14:16.532Z,6.80
2023-02-12T01:16:43.775Z,6.45
2023-02-12T01:19:11.638Z,6.32
2023-02-12T01:21:38.841Z,6.13
2023-02-12T01:24:05.935Z,6.32
2023-02-12T01:26:33.293Z,6.32
2023-02-12T01:29:04.959Z,5.95
2023-02-12T01:31:37.402Z,6.82
2023-02-12T01:34:06.316Z,6.45
2023-02-12T01:36:34.058Z,6.85
2023-02-12T01:39:02.972Z,6.68
2023-02-12T01:41:36.556Z,6.15
2023-02-12T01:44:07.925Z,6.30
2023-02-12T01:46:35.206Z,7.07
2023-02-12T01:49:03.874Z,6.55
2023-02-12T01:51:31.898Z,6.65
2023-02-12T01:54:02.755Z,6.50
2023-02-12T01:56:29.988Z,6.28
2023-02-12T01:58:57.835Z,6.32
2023-02-12T02:01:29.342Z,5.70
2023-02-12T02:04:08.243Z,5.70
2023-02-12T02:06:39.974Z,6.90
2023-02-12T02:09:07.307Z,7.15
2023-02-12T02:11:53.178Z,7.10
2023-02-12T02:14:32.495Z,7.10
2023-02-12T02:17:10.124Z,6.72
2023-02-12T02:19:49.049Z,6.97
2023-02-12T02:22:43.265Z,6.35
2023-02-12T02:25:32.311Z,7.13
2023-02-12T02:28:36.321Z,6.80
2023-02-12T02:31:20.473Z,5.75
2023-02-12T02:34:06.199Z,6.32
2023-02-12T02:36:33.390Z,6.10
2023-02-12T02:39:23.404Z,6.45
2023-02-12T02:42:04.142Z,6.97
2023-02-12T02:44:44.392Z,6.10
2023-02-12T02:47:13.986Z,7.40
2023-02-12T02:49:49.382Z,7.25
2023-02-12T02:52:24.591Z,6.57
2023-02-12T02:55:00.548Z,6.80
2023-02-12T02:57:56.203Z,6.78
2023-02-12T03:00:37.475Z,6.68
2023-02-12T03:03:20.011Z,6.45
2023-02-12T03:05:50.659Z,7.13
2023-02-12T03:08:25.694Z,7.28
2023-02-12T03:11:24.519Z,7.05
2023-02-12T03:14:10.364Z,7.60
2023-02-12T03:16:46.914Z,7.00
2023-02-12T03:19:22.040Z,6.65
2023-02-12T03:21:56.990Z,7.40
2023-02-12T03:24:28.925Z,7.47
2023-02-12T03:27:16.343Z,7.72
2023-02-12T03:29:43.414Z,7.35
2023-02-12T03:32:28.479Z,7.43
2023-02-12T03:35:13.082Z,6.95
2023-02-12T03:37:53.257Z,7.85
2023-02-12T03:40:33.990Z,7.03
2023-02-12T03:43:23.186Z,8.10
2023-02-12T03:46:34.780Z,8.15
2023-02-12T03:49:24.728Z,7.50
2023-02-12T03:51:52.011Z,7.43
2023-02-12T03:54:21.613Z,7.50
2023-02-12T03:57:20.615Z,7.95
2023-02-12T03:59:48.231Z,7.63
2023-02-12T04:02:18.074Z,6.95
2023-02-12T04:04:46.966Z,7.32
2023-02-12T04:07:14.369Z,7.63
2023-02-12T04:09:41.979Z,7.30
2023-02-12T04:12:30.180Z,7.65
2023-02-12T04:15:20.831Z,8.65
2023-02-12T04:17:59.391Z,7.82
2023-02-12T04:20:52.976Z,8.45
2023-02-12T04:23:20.158Z,7.32
2023-02-12T04:26:00.241Z,7.97
2023-02-12T04:28:51.405Z,7.80
2023-02-12T04:31:30.039Z,7.05
2023-02-12T04:33:57.358Z,7.65
2023-02-12T04:36:29.289Z,7.45
2023-02-12T04:39:00.698Z,7.78
2023-02-12T04:41:27.849Z,7.78
2023-02-12T04:43:55.256Z,8.35
2023-02-12T04:46:22.513Z,9.20
2023-02-12T04:48:53.888Z,8.95
2023-02-12T04:51:21.066Z,8.85
2023-02-12T04:53:48.211Z,8.35
2023-02-12T04:56:15.650Z,8.45
2023-02-12T04:58:42.745Z,9.40
2023-02-12T05:01:10.580Z,9.15
2023-02-12T05:03:38.195Z,8.82
2023-02-12T05:06:06.529Z,8.63
2023-02-12T05:08:34.041Z,9.02
2023-02-12T05:11:06.260Z,8.98
2023-02-12T05:13:33.600Z,9.02
2023-02-12T05:16:03.493Z,8.38
2023-02-12T05:18:31.121Z,9.35
2023-02-12T05:20:58.645Z,8.30
2023-02-12T05:23:31.052Z,9.80
2023-02-12T05:26:03.373Z,9.23
2023-02-12T05:28:30.850Z,10.32
2023-02-12T05:31:02.762Z,10.95
2023-02-12T05:33:30.043Z,10.20
2023-02-12T05:35:57.505Z,9.32
2023-02-12T05:38:24.780Z,9.52
2023-02-12T05:40:51.976Z,10.18
2023-02-12T05:43:19.189Z,9.30
2023-02-12T05:45:46.417Z,10.45
2023-02-12T05:48:13.301Z,10.02
2023-02-12T05:50:40.477Z,9.77
2023-02-12T05:53:07.984Z,10.07
2023-02-12T05:55:35.902Z,9.65
2023-02-12T05:58:03.027Z,11.15
2023-02-12T06:00:30.086Z,11.07
2023-02-12T06:02:57.422Z,11.38
2023-02-12T06:05:24.283Z,10.55
2023-02-12T06:07:51.095Z,10.38
2023-02-12T06:10:18.036Z,12.50
2023-02-12T06:12:45.506Z,11.98
2023-02-12T06:15:12.862Z,11.65
2023-02-12T06:17:40.089Z,10.55
2023-02-12T06:20:07.027Z,11.98
2023-02-12T06:22:33.846Z,11.05
2023-02-12T06:25:01.397Z,11.85
2023-02-12T06:27:28.604Z,11.48
2023-02-12T06:29:55.382Z,10.68
2023-02-12T06:32:22.786Z,11.60
2023-02-12T06:34:50.118Z,11.90
2023-02-12T06:37:17.314Z,10.55
2023-02-12T06:39:44.612Z,11.25
2023-02-12T06:42:11.865Z,12.15
2023-02-12T06:44:39.065Z,12.90
2023-02-12T06:47:06.402Z,12.82
2023-02-12T06:49:33.593Z,11.07
2023-02-12T06:52:03.208Z,11.60
2023-02-12T06:54:30.681Z,10.95
2023-02-12T06:56:57.513Z,10.70
2023-02-12T06:59:24.583Z,11.02
2023-02-12T07:01:51.860Z,12.25
2023-02-12T07:04:19.137Z,11.63
2023-02-12T07:06:46.415Z,11.63
2023-02-12T07:09:13.654Z,12.77
2023-02-12T07:11:40.869Z,12.75
2023-02-12T07:14:08.196Z,12.43
2023-02-12T07:16:35.968Z,12.02
2023-02-12T07:19:02.901Z,11.60
2023-02-12T07:21:29.699Z,13.05
2023-02-12T07:23:57.065Z,12.65
2023-02-12T07:26:24.254Z,12.20
2023-02-12T07:28:51.788Z,11.27
2023-02-12T07:31:21.371Z,11.88
2023-02-12T07:33:49.766Z,13.10
2023-02-12T07:36:20.444Z,13.00
2023-02-12T07:38:48.107Z,12.77
2023-02-12T07:41:21.060Z,13.75
2023-02-12T07:43:54.033Z,12.65
2023-02-12T07:46:32.989Z,12.38
2023-02-12T07:49:05.763Z,11.85
2023-02-12T07:51:36.415Z,12.93
2023-02-12T07:54:04.408Z,12.63
2023-02-12T07:56:35.896Z,12.75
2023-02-12T07:59:07.071Z,12.90
2023-02-12T08:01:41.190Z,13.32
2023-02-12T08:04:16.538Z,12.20
2023-02-12T08:06:47.104Z,12.80
2023-02-12T08:09:19.338Z,12.77
2023-02-12T08:11:48.586Z,13.15
2023-02-12T08:14:19.660Z,13.18
2023-02-12T08:16:49.738Z,13.30
2023-02-12T08:19:21.162Z,13.15
2023-02-12T08:21:54.980Z,13.23
2023-02-12T08:24:23.820Z,14.18
2023-02-12T08:26:51.855Z,12.82
2023-02-12T08:29:22.854Z,14.93
2023-02-12T08:31:55.178Z,13.90
2023-02-12T08:34:27.178Z,14.68
2023-02-12T08:36:57.642Z,12.75
2023-02-12T08:39:26.972Z,13.57
2023-02-12T08:41:58.050Z,14.73
2023-02-12T08:44:25.417Z,14.30
2023-02-12T08:46:53.173Z,14.00
2023-02-12T08:49:25.930Z,14.55
2023-02-12T08:51:54.899Z,14.10
2023-02-12T08:54:24.492Z,15.10
2023-02-12T08:56:54.637Z,14.18
2023-02-12T08:59:21.883Z,15.75
2023-02-12T09:01:51.261Z,15.13
2023-02-12T09:04:21.785Z,14.77
2023-02-12T09:06:49.052Z,15.43
2023-02-12T09:09:16.431Z,13.88
2023-02-12T09:11:44.697Z,15.55
2023-02-12T09:14:15.082Z,14.77
2023-02-12T09:16:44.412Z,13.88
2023-02-12T09:19:15.060Z,14.55
2023-02-12T09:21:42.615Z,15.68
2023-02-12T09:24:10.136Z,14.45
2023-02-12T09:26:37.497Z,14.23
2023-02-12T09:29:04.819Z,15.52
2023-02-12T09:31:32.610Z,15.80
2023-02-12T09:34:02.726Z,14.73
2023-02-12T09:36:30.561Z,15.10
2023-02-12T09:38:59.508Z,15.85
2023-02-12T09:41:35.444Z,14.10
2023-02-12T09:44:18.723Z,14.13
2023-02-12T09:47:03.052Z,12.60
2023-02-12T09:49:43.266Z,13.00
2023-02-12T09:52:24.619Z,14.70
2023-02-12T09:54:51.973Z,14.23
2023-02-12T09:57:36.156Z,13.73
2023-02-12T10:00:22.885Z,14.52
2023-02-12T10:02:52.625Z,13.85
2023-02-12T10:05:25.279Z,14.05
2023-02-12T10:08:05.290Z,15.00
2023-02-12T10:10:41.066Z,15.13
2023-02-12T10:13:18.836Z,14.15
2023-02-12T10:16:04.268Z,14.57
2023-02-12T10:19:03.550Z,13.90
2023-02-12T10:21:39.246Z,13.38
2023-02-12T10:24:17.789Z,13.55
2023-02-12T10:26:51.445Z,14.70
2023-02-12T10:29:25.117Z,13.32
2023-02-12T10:32:07.415Z,15.70
2023-02-12T10:34:36.948Z,14.27
2023-02-12T10:37:12.571Z,15.32
2023-02-12T10:39:48.628Z,15.05
2023-02-12T10:44:45.622Z,12.32
2023-02-12T10:47:19.926Z,14.52
2023-02-12T10:50:00.474Z,15.07
2023-02-12T10:52:45.128Z,16.10
2023-02-12T10:55:26.822Z,15.35
2023-02-12T10:57:54.472Z,14.57
2023-02-12T11:00:32.785Z,15.88
2023-02-12T11:03:13.396Z,15.82
2023-02-12T11:05:43.220Z,16.40
2023-02-12T11:08:32.686Z,16.25
2023-02-12T11:11:09.979Z,15.65
2023-02-12T11:13:38.914Z,16.42
2023-02-12T11:16:06.350Z,17.45
2023-02-12T11:18:34.840Z,18.63
2023-02-12T11:21:02.345Z,18.15
2023-02-12T11:23:31.024Z,17.67
2023-02-12T11:26:04.454Z,17.10
2023-02-12T11:28:33.685Z,16.50
2023-02-12T11:31:05.066Z,18.48
2023-02-12T11:33:34.880Z,16.33
2023-02-12T11:36:03.013Z,16.70
2023-02-12T11:38:37.737Z,15.85
2023-02-12T11:41:19.540Z,17.35
2023-02-12T11:43:46.682Z,15.63
2023-02-12T11:46:21.401Z,16.13
2023-02-12T11:48:48.801Z,16.73
2023-02-12T11:51:26.339Z,16.55
2023-02-12T11:53:55.435Z,15.80
2023-02-12T11:56:22.816Z,14.82
2023-02-12T11:58:51.240Z,16.23
2023-02-12T12:01:22.609Z,15.60
2023-02-12T12:04:14.563Z,14.38
2023-02-12T12:06:48.712Z,14.00
2023-02-12T12:09:24.378Z,13.65
2023-02-12T12:12:17.870Z,13.80
2023-02-12T12:15:15.548Z,13.27
2023-02-12T12:18:16.593Z,11.63
2023-02-12T12:21:08.988Z,12.10
2023-02-12T12:23:41.408Z,11.60
2023-02-12T12:26:14.755Z,12.07
2023-02-12T12:28:52.512Z,11.07
2023-02-12T12:31:19.778Z,11.10
2023-02-12T12:33:59.294Z,11.20
2023-02-12T12:36:56.013Z,10.57
2023-02-12T12:39:35.376Z,10.38
2023-02-12T12:42:39.745Z,10.55
2023-02-12T12:45:24.998Z,9.55
2023-02-12T12:48:33.789Z,10.27
2023-02-12T12:51:26.996Z,9.05
2023-02-12T12:53:54.154Z,10.15
2023-02-12T12:56:38.138Z,10.93
2023-02-12T12:59:29.027Z,9.30
2023-02-12T13:02:16.925Z,9.23
2023-02-12T13:04:58.590Z,9.77
2023-02-12T13:08:03.040Z,10.30
2023-02-12T13:10:47.000Z,9.02
2023-02-12T13:13:19.085Z,10.32
2023-02-12T13:15:51.164Z,11.90
2023-02-12T13:18:29.870Z,10.50
2023-02-12T13:21:10.973Z,10.70
2023-02-12T13:23:43.301Z,9.77
2023-02-12T13:26:19.539Z,10.63
2023-02-12T13:28:57.097Z,10.18
2023-02-12T13:31:35.458Z,9.70
2023-02-12T13:34:07.097Z,9.00
2023-02-12T13:36:36.601Z,8.10
2023-02-12T13:39:12.749Z,8.95
2023-02-12T13:41:44.445Z,9.18
2023-02-12T13:44:21.549Z,8.85
2023-02-12T13:47:03.909Z,9.35
2023-02-12T13:49:48.952Z,8.95
2023-02-12T13:52:30.386Z,9.88
2023-02-12T13:55:15.169Z,10.07
2023-02-12T13:57:42.375Z,9.88
2023-02-12T14:00:50.241Z,9.65
2023-02-12T14:03:23.194Z,8.98
2023-02-12T14:05:50.406Z,9.60
2023-02-12T14:08:37.587Z,8.95
2023-02-12T14:11:16.388Z,7.88
2023-02-12T14:14:00.422Z,9.45
2023-02-12T14:16:29.990Z,8.93
2023-02-12T14:19:34.700Z,9.95
2023-02-12T14:22:09.702Z,9.82
2023-02-12T14:24:36.904Z,9.65
2023-02-12T14:27:22.562Z,8.68
2023-02-12T14:30:03.092Z,9.30
2023-02-12T14:32:55.658Z,9.13
2023-02-12T14:35:31.987Z,9.30
2023-02-12T14:38:21.628Z,12.77
2023-02-12T14:40:54.096Z,9.88
2023-02-12T14:43:29.645Z,9.88
2023-02-12T14:46:16.780Z,9.05
2023-02-12T14:48:55.414Z,8.13
2023-02-12T14:51:45.307Z,8.82
2023-02-12T14:54:21.540Z,8.63
2023-02-12T14:56:50.578Z,9.25
2023-02-12T14:59:21.341Z,9.30
2023-02-12T15:01:48.971Z,9.15
2023-02-12T15:04:28.916Z,8.73
2023-02-12T15:07:14.274Z,9.02
2023-02-12T15:09:57.050Z,9.50
2023-02-12T15:12:32.966Z,8.90
2023-02-12T15:15:11.975Z,8.75
2023-02-12T15:17:42.327Z,7.45
2023-02-12T15:20:21.101Z,9.20
2023-02-12T15:22:48.545Z,8.77
2023-02-12T15:25:25.922Z,8.93
2023-02-12T15:28:05.887Z,8.38
2023-02-12T15:30:35.625Z,9.27
2023-02-12T15:33:07.777Z,8.38
2023-02-12T15:35:37.873Z,9.43
2023-02-12T15:38:07.693Z,9.52
2023-02-12T15:40:35.205Z,8.68
2023-02-12T15:43:05.112Z,10.00
2023-02-12T15:45:34.710Z,9.73
2023-02-12T15:48:18.622Z,8.75
2023-02-12T15:51:07.049Z,8.65
2023-02-12T15:53:34.585Z,8.32
2023-02-12T15:56:04.174Z,8.63
2023-02-12T15:58:38.192Z,8.48
2023-02-12T16:01:06.682Z,9.32
2023-02-12T16:03:36.089Z,8.60
2023-02-12T16:06:14.162Z,8.00
2023-02-12T16:08:44.306Z,8.55
2023-02-12T16:11:15.553Z,8.18
2023-02-12T16:13:51.163Z,8.15
2023-02-12T16:16:19.887Z,9.50
2023-02-12T16:18:47.132Z,9.20
2023-02-12T16:21:20.184Z,9.73
2023-02-12T16:23:49.997Z,8.00
2023-02-12T16:26:19.304Z,9.23
2023-02-12T16:28:52.085Z,9.82
2023-02-12T16:31:21.931Z,9.02
2023-02-12T16:33:53.354Z,8.80
2023-02-12T16:36:20.561Z,8.90
2023-02-12T16:38:54.650Z,8.68
2023-02-12T16:41:30.688Z,8.90
2023-02-12T16:46:29.904Z,8.23
2023-02-12T16:48:58.958Z,8.60
2023-02-12T16:51:27.578Z,8.30
2023-02-12T16:53:57.558Z,9.15
2023-02-12T16:56:27.007Z,8.68
2023-02-12T16:58:57.178Z,8.80
2023-02-12T17:01:33.481Z,8.45
2023-02-12T17:04:04.625Z,7.80
2023-02-12T17:06:32.598Z,6.93
2023-02-12T17:09:00.377Z,8.73
2023-02-12T17:11:29.016Z,9.32
2023-02-12T17:13:56.823Z,8.38
2023-02-12T17:16:32.268Z,9.40
2023-02-12T17:19:00.668Z,8.50
2023-02-12T17:21:39.763Z,8.77
2023-02-12T17:24:15.300Z,8.30
2023-02-12T17:26:42.627Z,8.57
2023-02-12T17:29:10.015Z,7.78
2023-02-12T17:31:38.088Z,8.85
2023-02-12T17:34:05.829Z,8.25
2023-02-12T17:36:33.323Z,8.20
2023-02-12T17:39:01.386Z,8.75
2023-02-12T17:41:28.728Z,8.32
2023-02-12T17:43:56.059Z,9.20
2023-02-12T17:46:25.672Z,7.95
2023-02-12T17:48:52.647Z,8.23
2023-02-12T17:51:20.271Z,7.88
2023-02-12T17:53:47.649Z,8.35
2023-02-12T17:56:17.458Z,9.10
2023-02-12T17:58:46.275Z,8.50
2023-02-12T18:01:17.214Z,8.25
2023-02-12T18:03:44.540Z,8.73
2023-02-12T18:06:14.232Z,8.07
2023-02-12T18:08:41.795Z,7.85
2023-02-12T18:11:10.609Z,8.35
2023-02-12T18:13:38.398Z,8.63
2023-02-12T18:16:11.746Z,7.78
2023-02-12T18:18:40.221Z,6.68
2023-02-12T18:21:12.086Z,7.68
2023-02-12T18:23:39.817Z,8.27
2023-02-12T18:26:08.938Z,8.18
2023-02-12T18:28:36.782Z,7.43
2023-02-12T18:31:04.482Z,7.30
2023-02-12T18:33:32.062Z,7.28
2023-02-12T18:35:59.314Z,7.50
2023-02-12T18:38:26.914Z,7.85
2023-02-12T18:40:54.187Z,8.32
2023-02-12T18:43:22.932Z,7.57
2023-02-12T18:45:51.722Z,7.60
2023-02-12T18:48:19.329Z,7.80
2023-02-12T18:50:49.257Z,7.90
2023-02-12T18:53:16.586Z,7.47
2023-02-12T18:55:43.889Z,7.15
2023-02-12T18:58:11.227Z,7.50
2023-02-12T19:00:38.498Z,7.85
2023-02-12T19:03:05.874Z,7.30
2023-02-12T19:05:32.798Z,7.40
2023-02-12T19:08:00.116Z,6.55
2023-02-12T19:10:27.357Z,7.13
2023-02-12T19:12:56.107Z,7.15
2023-02-12T19:15:23.319Z,6.18
2023-02-12T19:17:50.885Z,6.45
2023-02-12T19:20:18.074Z,7.57
2023-02-12T19:22:46.516Z,7.70
2023-02-12T19:25:14.469Z,7.47
2023-02-12T19:27:41.325Z,7.20
2023-02-12T19:30:08.679Z,7.03
2023-02-12T19:32:37.382Z,6.70
2023-02-12T19:35:05.371Z,6.82
2023-02-12T19:37:32.654Z,7.22
2023-02-12T19:39:59.988Z,7.40
2023-02-12T19:42:26.842Z,7.25
2023-02-12T19:44:54.120Z,6.93
2023-02-12T19:47:21.551Z,6.45
2023-02-12T19:49:48.885Z,6.65
2023-02-12T19:52:16.131Z,6.63
2023-02-12T19:54:45.150Z,6.97
2023-02-12T19:57:13.544Z,6.50
2023-02-12T19:59:41.118Z,5.75
2023-02-12T20:02:08.509Z,5.65
2023-02-12T20:04:35.819Z,5.07
2023-02-12T20:07:03.035Z,4.97
2023-02-12T20:09:30.283Z,4.93
2023-02-12T20:11:57.394Z,5.45
2023-02-12T20:14:24.883Z,5.00
2023-02-12T20:16:55.108Z,4.95
2023-02-12T20:19:25.174Z,5.15
2023-02-12T20:21:56.700Z,4.53
2023-02-12T20:24:25.817Z,4.65
2023-02-12T20:26:53.474Z,4.93
2023-02-12T20:29:21.021Z,5.00
2023-02-12T20:31:48.462Z,5.22
2023-02-12T20:34:17.178Z,4.97
2023-02-12T20:36:48.753Z,4.25
2023-02-12T20:39:19.219Z,4.80
2023-02-12T20:41:46.539Z,4.95
2023-02-12T20:44:16.575Z,5.18
2023-02-12T20:46:49.077Z,3.72
2023-02-12T20:49:18.105Z,5.20
2023-02-12T20:51:45.775Z,4.40
2023-02-12T20:54:13.064Z,5.07
2023-02-12T20:56:39.964Z,4.30
2023-02-12T20:59:07.491Z,5.03
2023-02-12T21:01:39.851Z,4.57
2023-02-12T21:04:18.072Z,4.80
2023-02-12T21:06:45.612Z,5.57
2023-02-12T21:09:13.856Z,5.55
2023-02-12T21:11:42.234Z,9.10
2023-02-12T21:14:21.768Z,7.18
2023-02-12T21:16:49.974Z,12.48
2023-02-12T21:19:19.422Z,8.75
2023-02-12T21:21:46.809Z,6.93
2023-02-12T21:24:19.651Z,4.95
2023-02-12T21:26:47.348Z,5.13
2023-02-12T21:29:14.879Z,4.55
2023-02-12T21:31:45.437Z,4.43
2023-02-12T21:34:18.319Z,4.75
2023-02-12T21:36:46.958Z,4.25
2023-02-12T21:39:16.600Z,4.88
2023-02-12T21:41:44.135Z,3.92
2023-02-12T21:44:14.862Z,4.40
2023-02-12T21:46:42.470Z,4.50
2023-02-12T21:49:10.788Z,4.85
2023-02-12T21:51:43.294Z,4.85
2023-02-12T21:54:18.166Z,4.32
2023-02-12T21:56:46.916Z,4.05
2023-02-12T21:59:14.955Z,4.20
2023-02-12T22:01:50.359Z,4.65
2023-02-12T22:04:18.067Z,4.07
2023-02-12T22:06:47.851Z,3.85
2023-02-12T22:09:16.242Z,4.25
2023-02-12T22:11:43.801Z,4.88
2023-02-12T22:14:15.648Z,4.50
2023-02-12T22:16:42.975Z,4.80
2023-02-12T22:19:10.695Z,4.50
2023-02-12T22:21:40.165Z,4.38
2023-02-12T22:24:09.263Z,4.65
2023-02-12T22:26:36.521Z,4.63
2023-02-12T22:29:07.455Z,5.32
2023-02-12T22:31:37.499Z,4.47
2023-02-12T22:34:08.092Z,4.53
2023-02-12T22:36:37.066Z,4.55
2023-02-12T22:39:04.627Z,4.55
2023-02-12T22:41:31.972Z,5.68
2023-02-12T22:44:00.114Z,4.35
2023-02-12T22:46:27.556Z,4.32
2023-02-12T22:48:54.350Z,4.50
2023-02-12T22:51:28.230Z,4.72
2023-02-12T22:53:55.674Z,4.43
2023-02-12T22:56:23.033Z,4.60
2023-02-12T22:58:56.838Z,5.03
2023-02-12T23:01:24.814Z,3.83
2023-02-12T23:03:52.261Z,4.47
2023-02-12T23:06:22.082Z,4.55
2023-02-12T23:08:50.861Z,4.25
2023-02-12T23:11:18.543Z,3.65
2023-02-12T23:13:45.877Z,4.25
2023-02-12T23:16:12.872Z,4.28
2023-02-12T23:18:40.093Z,4.15
2023-02-12T23:21:06.880Z,4.65
2023-02-12T23:23:33.788Z,4.40
2023-02-12T23:26:01.027Z,4.10
2023-02-12T23:28:27.980Z,4.40
2023-02-12T23:30:55.416Z,4.57
2023-02-12T23:33:22.767Z,4.50
2023-02-12T23:35:50.208Z,4.10
2023-02-12T23:38:17.373Z,4.50
2023-02-12T23:40:44.782Z,4.55
2023-02-12T23:43:11.966Z,4.30
2023-02-12T23:45:39.109Z,4.60
2023-02-12T23:48:06.410Z,5.07
2023-02-12T23:50:33.644Z,4.95
2023-02-12T23:53:00.859Z,4.57
2023-02-12T23:55:27.903Z,4.95
2023-02-12T23:57:54.790Z,4.70
